createdAt,value
2017-06-02T00:01:14.399Z,18.60
2017-06-02T00:03:42.630Z,18.50
2017-06-02T00:06:10.858Z,18.50
2017-06-02T00:08:39.119Z,18.70
2017-06-02T00:11:07.392Z,18.80
2017-06-02T00:13:35.631Z,18.80
2017-06-02T00:16:03.859Z,18.80
2017-06-02T00:18:32.123Z,18.70
2017-06-02T00:21:00.360Z,18.70
2017-06-02T00:23:28.611Z,18.60
2017-06-02T00:25:56.830Z,18.70
2017-06-02T00:28:25.054Z,18.70
2017-06-02T00:30:53.395Z,18.60
2017-06-02T00:33:21.627Z,18.60
2017-06-02T00:35:49.850Z,18.60
2017-06-02T00:38:18.120Z,18.60
2017-06-02T00:40:46.354Z,18.60
2017-06-02T00:43:13.819Z,18.50
2017-06-02T00:45:42.127Z,18.70
2017-06-02T00:48:10.355Z,18.70
2017-06-02T00:50:38.575Z,18.80
2017-06-02T00:53:06.811Z,18.80
2017-06-02T00:55:35.118Z,18.70
2017-06-02T00:58:03.350Z,18.70
2017-06-02T01:00:31.586Z,18.60
2017-06-02T01:02:59.846Z,18.70
2017-06-02T01:05:28.087Z,18.60
2017-06-02T01:07:56.315Z,18.30
2017-06-02T01:10:24.577Z,18.20
2017-06-02T01:12:52.811Z,18.20
2017-06-02T01:15:21.043Z,18.10
2017-06-02T01:17:49.277Z,18.20
2017-06-02T01:20:17.506Z,18.20
2017-06-02T01:22:45.732Z,18.20
2017-06-02T01:25:13.966Z,18.10
2017-06-02T01:27:42.194Z,18.10
2017-06-02T01:30:10.421Z,18.20
2017-06-02T01:32:38.647Z,18.20
2017-06-02T01:35:06.915Z,18.30
2017-06-02T01:37:35.150Z,18.30
2017-06-02T01:40:03.377Z,18.40
2017-06-02T01:42:31.615Z,18.40
2017-06-02T01:44:59.914Z,18.50
2017-06-02T01:47:28.154Z,18.50
2017-06-02T01:49:56.467Z,18.40
2017-06-02T01:52:24.706Z,18.40
2017-06-02T01:54:52.935Z,18.50
2017-06-02T01:57:21.184Z,18.50
2017-06-02T01:59:49.414Z,18.50
2017-06-02T02:02:17.738Z,18.50
2017-06-02T02:04:45.972Z,18.40
2017-06-02T02:07:14.291Z,18.30
2017-06-02T02:09:42.514Z,18.10
2017-06-02T02:12:10.838Z,18.00
2017-06-02T02:14:39.111Z,18.00
2017-06-02T02:17:07.393Z,18.00
2017-06-02T02:19:35.667Z,18.10
2017-06-02T02:22:03.904Z,18.10
2017-06-02T02:24:32.222Z,18.10
2017-06-02T02:27:00.499Z,18.10
2017-06-02T02:29:28.751Z,18.20
2017-06-02T02:31:56.978Z,18.20
2017-06-02T02:34:25.212Z,18.10
2017-06-02T02:36:53.441Z,17.90
2017-06-02T02:39:21.770Z,17.80
2017-06-02T02:41:49.996Z,17.70
2017-06-02T02:44:18.224Z,17.70
2017-06-02T02:46:45.683Z,17.70
2017-06-02T02:49:13.946Z,17.60
2017-06-02T02:51:42.225Z,17.60
2017-06-02T02:54:10.455Z,17.60
2017-06-02T02:56:38.775Z,17.70
2017-06-02T02:59:07.007Z,17.60
2017-06-02T03:01:35.255Z,17.60
2017-06-02T03:04:02.718Z,17.60
2017-06-02T03:06:30.955Z,17.60
2017-06-02T03:08:59.187Z,17.60
2017-06-02T03:11:27.503Z,17.50
2017-06-02T03:13:55.739Z,17.30
2017-06-02T03:16:24.054Z,17.10
2017-06-02T03:18:52.331Z,17.10
2017-06-02T03:21:20.558Z,17.10
2017-06-02T03:23:48.882Z,17.20
2017-06-02T03:26:17.154Z,17.30
2017-06-02T03:28:45.439Z,17.40
2017-06-02T03:31:13.671Z,17.40
2017-06-02T03:33:41.984Z,17.40
2017-06-02T03:36:10.260Z,17.50
2017-06-02T03:38:38.502Z,17.70
2017-06-02T03:41:06.737Z,17.80
2017-06-02T03:43:35.086Z,17.90
2017-06-02T03:46:03.359Z,18.00
2017-06-02T03:48:31.636Z,18.00
2017-06-02T03:50:59.908Z,18.00
2017-06-02T03:53:27.383Z,18.00
2017-06-02T03:55:55.614Z,18.30
2017-06-02T03:58:23.838Z,18.30
2017-06-02T04:00:52.066Z,18.30
2017-06-02T04:03:20.372Z,18.40
2017-06-02T04:05:48.638Z,18.40
2017-06-02T04:08:16.874Z,18.40
2017-06-02T04:10:45.115Z,18.50
2017-06-02T04:13:13.364Z,18.60
2017-06-02T04:15:41.599Z,18.50
2017-06-02T04:18:09.826Z,18.50
2017-06-02T04:20:38.087Z,18.50
2017-06-02T04:23:06.315Z,18.50
2017-06-02T04:25:34.631Z,18.50
2017-06-02T04:28:02.914Z,18.50
2017-06-02T04:30:31.167Z,18.60
2017-06-02T04:32:59.390Z,18.80
2017-06-02T04:35:27.637Z,19.40
2017-06-02T04:37:55.911Z,20.50
2017-06-02T04:40:24.191Z,20.90
2017-06-02T04:42:52.424Z,20.20
2017-06-02T04:45:20.653Z,20.20
2017-06-02T04:47:48.910Z,20.50
2017-06-02T04:50:17.199Z,20.60
2017-06-02T04:52:45.466Z,20.90
2017-06-02T04:55:13.694Z,21.90
2017-06-02T04:57:42.015Z,23.40
2017-06-02T05:00:10.241Z,23.90
2017-06-02T05:02:38.474Z,23.60
2017-06-02T05:05:06.703Z,24.10
2017-06-02T05:07:35.011Z,26.10
2017-06-02T05:10:03.296Z,27.80
2017-06-02T05:12:31.526Z,28.60
2017-06-02T05:14:59.759Z,27.10
2017-06-02T05:17:27.978Z,26.20
2017-06-02T05:19:56.209Z,26.80
2017-06-02T05:22:24.441Z,27.50
2017-06-02T05:24:52.670Z,28.40
2017-06-02T05:27:21.012Z,29.30
2017-06-02T05:29:49.235Z,29.80
2017-06-02T05:32:17.458Z,28.30
2017-06-02T05:34:45.730Z,26.20
2017-06-02T05:37:13.962Z,24.90
2017-06-02T05:39:41.426Z,24.90
2017-06-02T05:42:09.739Z,22.90
2017-06-02T05:44:37.968Z,22.00
2017-06-02T07:32:37.886Z,21.80
2017-06-02T07:35:06.126Z,22.10
2017-06-02T07:37:34.352Z,22.40
2017-06-02T07:40:02.592Z,22.30
2017-06-02T07:42:30.890Z,22.20
2017-06-02T07:44:59.155Z,22.70
2017-06-02T07:47:26.612Z,22.70
2017-06-02T07:49:54.835Z,23.20
2017-06-02T07:52:23.054Z,24.00
2017-06-02T07:54:51.288Z,24.50
2017-06-02T07:57:19.615Z,24.60
2017-06-02T07:59:47.846Z,24.50
2017-06-02T08:02:16.171Z,24.50
2017-06-02T08:04:44.405Z,24.60
2017-06-02T08:07:12.639Z,24.60
2017-06-02T08:09:40.862Z,24.30
2017-06-02T08:12:09.103Z,24.10
2017-06-02T08:14:37.328Z,24.20
2017-06-02T08:17:05.569Z,24.30
2017-06-02T08:19:33.794Z,24.40
2017-06-02T08:22:02.027Z,23.90
2017-06-02T08:24:30.339Z,23.90
2017-06-02T08:26:58.579Z,24.10
2017-06-02T08:29:26.807Z,24.10
2017-06-02T08:31:55.067Z,24.20
2017-06-02T08:34:23.295Z,24.40
2017-06-02T08:36:50.799Z,24.40
2017-06-02T08:39:19.043Z,24.10
2017-06-02T08:41:47.264Z,24.20
2017-06-02T08:44:15.503Z,24.40
2017-06-02T08:46:43.727Z,24.90
2017-06-02T08:49:11.962Z,25.10
2017-06-02T08:51:40.195Z,25.00
2017-06-02T08:54:08.431Z,25.00
2017-06-02T08:56:36.651Z,24.90
2017-06-02T08:59:04.891Z,25.10
2017-06-02T09:01:33.142Z,25.40
2017-06-02T09:04:01.415Z,25.70
2017-06-02T09:06:29.646Z,25.40
2017-06-02T09:08:57.876Z,26.00
2017-06-02T09:11:26.107Z,25.80
2017-06-02T09:13:54.327Z,25.50
2017-06-02T09:16:22.563Z,25.40
2017-06-02T09:18:50.811Z,25.60
2017-06-02T09:21:19.055Z,25.90
2017-06-02T09:23:47.312Z,25.60
2017-06-02T09:26:15.595Z,25.60
2017-06-02T09:28:43.817Z,25.40
2017-06-02T09:31:12.055Z,25.20
2017-06-02T09:33:40.291Z,25.30
2017-06-02T09:36:08.523Z,25.20
2017-06-02T09:38:36.859Z,25.30
2017-06-02T09:41:05.103Z,25.60
2017-06-02T09:43:33.323Z,25.50
2017-06-02T09:46:01.575Z,25.40
2017-06-02T09:48:29.807Z,25.50
2017-06-02T09:50:58.038Z,25.50
2017-06-02T09:53:26.269Z,25.50
2017-06-02T09:55:54.490Z,25.80
2017-06-02T09:58:22.730Z,26.10
2017-06-02T10:00:50.955Z,25.70
2017-06-02T10:03:19.303Z,25.50
2017-06-02T10:05:47.522Z,25.70
2017-06-02T10:08:15.862Z,25.90
2017-06-02T10:10:44.135Z,25.80
2017-06-02T10:13:12.371Z,25.70
2017-06-02T10:15:40.684Z,25.70
2017-06-02T10:18:08.923Z,25.80
2017-06-02T10:20:37.149Z,25.60
2017-06-02T10:23:05.391Z,26.00
2017-06-02T10:25:33.615Z,25.90
2017-06-02T10:28:01.858Z,26.00
2017-06-02T10:30:30.091Z,26.40
2017-06-02T10:32:58.407Z,26.90
2017-06-02T10:35:26.684Z,27.70
2017-06-02T10:37:54.911Z,27.70
2017-06-02T10:40:23.150Z,27.00
2017-06-02T10:42:51.373Z,26.70
2017-06-02T10:45:19.679Z,26.40
2017-06-02T10:47:47.915Z,26.60
2017-06-02T10:50:16.223Z,26.30
2017-06-02T10:52:44.502Z,26.10
2017-06-02T10:55:12.763Z,26.20
2017-06-02T10:57:41.055Z,26.20
2017-06-02T11:00:09.292Z,25.80
2017-06-02T11:02:37.615Z,26.30
2017-06-02T11:05:05.883Z,26.70
2017-06-02T11:07:34.159Z,27.00
2017-06-02T11:10:02.396Z,27.20
2017-06-02T11:12:30.627Z,27.50
2017-06-02T11:14:58.857Z,27.30
2017-06-02T11:17:27.150Z,27.30
2017-06-02T11:19:55.432Z,26.60
2017-06-02T11:22:23.666Z,26.70
2017-06-02T11:24:51.895Z,26.90
2017-06-02T11:27:20.143Z,27.30
2017-06-02T11:29:48.432Z,27.00
2017-06-02T11:32:16.672Z,26.80
2017-06-02T11:34:44.987Z,27.00
2017-06-02T11:37:13.223Z,26.80
2017-06-02T11:39:41.447Z,26.80
2017-06-02T11:42:09.697Z,27.20
2017-06-02T11:44:37.922Z,27.20
2017-06-02T11:47:06.204Z,27.20
2017-06-02T11:49:34.428Z,27.10
2017-06-02T11:52:02.807Z,26.90
2017-06-02T11:54:31.038Z,26.50
2017-06-02T11:56:59.347Z,26.70
2017-06-02T11:59:27.583Z,27.10
2017-06-02T12:01:55.802Z,27.30
2017-06-02T12:04:24.394Z,27.50
2017-06-02T12:06:52.614Z,27.20
2017-06-02T12:09:20.842Z,27.30
2017-06-02T12:11:49.070Z,27.40
2017-06-02T12:14:17.309Z,27.50
2017-06-02T12:16:45.535Z,27.50
2017-06-02T12:19:13.771Z,27.20
2017-06-02T12:21:42.107Z,27.00
2017-06-02T12:24:10.351Z,27.40
2017-06-02T12:26:38.658Z,27.70
2017-06-02T12:29:07.034Z,27.70
2017-06-02T12:31:35.275Z,27.70
2017-06-02T12:34:03.587Z,27.40
2017-06-02T12:36:31.814Z,27.20
2017-06-02T12:39:00.043Z,27.00
2017-06-02T12:41:28.276Z,27.10
2017-06-02T12:43:56.578Z,27.10
2017-06-02T12:46:24.824Z,27.40
2017-06-02T12:48:53.056Z,27.50
2017-06-02T12:51:21.292Z,27.80
2017-06-02T12:53:49.518Z,27.90
2017-06-02T12:56:17.063Z,27.90
2017-06-02T12:58:45.292Z,28.00
2017-06-02T13:01:13.523Z,27.80
2017-06-02T13:03:41.754Z,27.90
2017-06-02T13:06:10.012Z,27.70
2017-06-02T13:08:38.312Z,27.70
2017-06-02T13:11:06.538Z,27.70
2017-06-02T13:13:34.766Z,27.50
2017-06-02T13:16:02.990Z,27.50
2017-06-02T13:18:31.311Z,27.70
2017-06-02T13:20:59.542Z,28.00
2017-06-02T13:23:27.774Z,28.00
2017-06-02T13:25:56.006Z,28.50
2017-06-02T13:28:24.316Z,28.00
2017-06-02T13:30:52.588Z,27.50
2017-06-02T13:33:20.823Z,27.60
2017-06-02T13:35:49.046Z,27.60
2017-06-02T13:38:17.311Z,27.60
2017-06-02T13:40:45.586Z,27.40
2017-06-02T13:43:13.851Z,27.40
2017-06-02T13:45:41.304Z,27.40
2017-06-02T13:48:09.586Z,27.70
2017-06-02T13:50:37.811Z,27.80
2017-06-02T13:53:06.043Z,27.90
2017-06-02T13:55:34.276Z,27.70
2017-06-02T13:58:02.503Z,27.50
2017-06-02T14:00:30.750Z,27.40
2017-06-02T14:02:58.980Z,27.20
2017-06-02T14:05:27.214Z,27.20
2017-06-02T14:07:55.440Z,27.20
2017-06-02T14:10:23.767Z,27.50
2017-06-02T14:12:51.991Z,27.70
2017-06-02T14:15:20.235Z,27.70
2017-06-02T14:17:48.460Z,27.60
2017-06-02T14:20:16.758Z,27.50
2017-06-02T14:22:44.994Z,27.50
2017-06-02T14:25:12.455Z,27.50
2017-06-02T14:27:40.685Z,27.20
2017-06-02T14:30:08.926Z,27.00
2017-06-02T14:32:37.165Z,27.10
2017-06-02T14:35:05.482Z,27.10
2017-06-02T14:37:34.483Z,27.10
2017-06-02T14:40:02.758Z,27.20
2017-06-02T14:42:30.995Z,27.30
2017-06-02T14:44:59.226Z,27.20
2017-06-02T14:47:27.463Z,27.30
2017-06-02T14:49:55.791Z,27.50
2017-06-02T14:52:23.260Z,27.50
2017-06-02T14:54:51.487Z,27.70
2017-06-02T14:57:19.746Z,27.80
2017-06-02T14:59:48.040Z,27.90
2017-06-02T15:02:16.258Z,28.20
2017-06-02T15:04:44.487Z,28.30
2017-06-02T15:07:12.719Z,28.10
2017-06-02T15:09:41.038Z,27.90
2017-06-02T15:12:09.317Z,27.90
2017-06-02T15:14:37.553Z,27.60
2017-06-02T15:17:05.774Z,27.80
2017-06-02T15:19:34.011Z,27.50
2017-06-02T15:22:02.313Z,27.20
2017-06-02T15:24:30.650Z,26.90
2017-06-02T15:26:58.955Z,26.90
2017-06-02T15:29:27.211Z,26.80
2017-06-02T15:31:55.432Z,26.90
2017-06-02T15:34:23.681Z,26.80
2017-06-02T15:36:51.963Z,26.50
2017-06-02T15:39:20.247Z,26.20
2017-06-02T15:41:48.467Z,25.80
2017-06-02T15:44:16.711Z,25.50
2017-06-02T15:46:44.930Z,25.00
2017-06-02T15:49:13.235Z,25.00
2017-06-02T15:51:41.462Z,24.60
2017-06-02T15:54:09.715Z,24.30
2017-06-02T15:56:37.947Z,24.10
2017-06-02T15:59:06.237Z,23.90
2017-06-02T16:01:34.511Z,23.80
2017-06-02T16:04:02.762Z,23.80
2017-06-02T16:06:31.066Z,23.70
2017-06-02T16:08:59.292Z,23.70
2017-06-02T16:11:27.520Z,23.50
2017-06-02T16:13:55.787Z,23.50
2017-06-02T16:16:24.063Z,23.50
2017-06-02T16:18:52.296Z,23.50
2017-06-02T16:21:20.527Z,23.50
2017-06-02T16:23:48.763Z,23.20
2017-06-02T16:26:16.994Z,23.20
2017-06-02T16:28:45.355Z,23.20
2017-06-02T16:31:13.579Z,23.20
2017-06-02T16:33:41.806Z,23.20
2017-06-02T16:36:10.042Z,23.10
2017-06-02T16:38:38.271Z,23.10
2017-06-02T16:41:06.606Z,23.20
2017-06-02T16:43:34.882Z,23.10
2017-06-02T16:46:03.102Z,23.20
2017-06-02T16:48:31.331Z,23.10
2017-06-02T16:50:59.563Z,23.00
2017-06-02T16:53:27.874Z,23.20
2017-06-02T16:55:56.159Z,23.10
2017-06-02T16:58:24.387Z,23.20
2017-06-02T17:00:52.615Z,23.20
2017-06-02T17:03:20.851Z,23.20
2017-06-02T17:05:49.078Z,23.20
2017-06-02T17:08:17.320Z,23.30
2017-06-02T17:10:45.542Z,23.20
2017-06-02T17:13:13.786Z,23.30
2017-06-02T17:15:42.012Z,23.30
2017-06-02T17:18:10.247Z,23.30
2017-06-02T17:20:38.478Z,23.40
2017-06-02T17:23:06.715Z,23.20
2017-06-02T17:25:34.939Z,23.20
2017-06-02T17:28:03.162Z,23.10
2017-06-02T17:30:31.400Z,23.10
2017-06-02T17:32:59.626Z,23.00
2017-06-02T17:35:27.867Z,23.10
2017-06-02T17:37:56.099Z,23.00
2017-06-02T17:40:24.340Z,23.00
2017-06-02T17:42:52.562Z,23.00
2017-06-02T17:45:20.797Z,22.90
2017-06-02T17:47:49.119Z,22.80
2017-06-02T17:50:17.397Z,22.80
2017-06-02T17:52:45.662Z,22.70
2017-06-02T17:55:13.919Z,22.80
2017-06-02T17:57:42.146Z,22.80
2017-06-02T18:00:10.372Z,22.80
2017-06-02T18:02:38.606Z,22.70
2017-06-02T18:05:06.826Z,22.70
2017-06-02T18:07:34.304Z,22.70
2017-06-02T18:10:02.539Z,22.70
2017-06-02T18:12:30.775Z,22.80
2017-06-02T18:14:59.006Z,22.80
2017-06-02T18:17:27.244Z,22.80
2017-06-02T18:19:55.472Z,22.90
2017-06-02T18:22:23.706Z,22.80
2017-06-02T18:24:52.023Z,22.90
2017-06-02T18:27:20.248Z,23.00
2017-06-02T18:29:48.570Z,23.20
2017-06-02T18:32:16.798Z,23.40
2017-06-02T18:34:45.030Z,23.60
2017-06-02T18:37:13.291Z,23.60
2017-06-02T18:39:41.526Z,23.50
2017-06-02T18:42:09.756Z,23.40
2017-06-02T18:44:37.990Z,23.40
2017-06-02T18:47:06.214Z,23.20
2017-06-02T18:49:34.453Z,23.10
2017-06-02T18:52:02.747Z,23.20
2017-06-02T18:54:31.018Z,23.10
2017-06-02T18:56:59.290Z,23.00
2017-06-02T18:59:27.528Z,22.90
2017-06-02T19:01:55.842Z,22.80
2017-06-02T19:04:24.086Z,22.80
2017-06-02T19:06:52.315Z,22.70
2017-06-02T19:09:20.543Z,22.70
2017-06-02T19:11:48.771Z,22.60
2017-06-02T19:14:16.995Z,22.40
2017-06-02T19:16:45.282Z,22.30
2017-06-02T19:19:13.512Z,22.20
2017-06-02T19:21:41.743Z,22.30
2017-06-02T19:24:09.975Z,22.30
2017-06-02T19:26:38.290Z,22.30
2017-06-02T19:29:06.516Z,22.10
2017-06-02T19:31:34.843Z,22.10
2017-06-02T19:34:03.107Z,21.90
2017-06-02T19:36:31.347Z,21.90
2017-06-02T19:38:59.662Z,22.00
2017-06-02T19:41:27.903Z,22.00
2017-06-02T19:43:56.127Z,22.00
2017-06-02T19:46:24.388Z,21.90
2017-06-02T19:48:52.662Z,21.70
2017-06-02T19:51:20.886Z,21.50
2017-06-02T19:53:49.137Z,21.50
2017-06-02T19:56:17.360Z,21.50
2017-06-02T19:58:45.666Z,21.60
2017-06-02T20:01:13.898Z,21.60
2017-06-02T20:03:42.129Z,21.50
2017-06-02T20:06:10.387Z,21.40
2017-06-02T20:08:38.619Z,21.30
2017-06-02T20:11:06.847Z,21.10
2017-06-02T20:13:35.091Z,21.20
2017-06-02T20:16:03.319Z,21.20
2017-06-02T20:18:31.551Z,21.20
2017-06-02T20:20:59.787Z,21.10
2017-06-02T20:23:28.030Z,21.10
2017-06-02T20:25:56.274Z,21.00
2017-06-02T20:28:24.511Z,21.00
2017-06-02T20:30:52.820Z,20.80
2017-06-02T20:33:21.058Z,20.80
2017-06-02T20:35:49.279Z,20.80
2017-06-02T20:38:17.519Z,20.80
2017-06-02T20:40:45.831Z,20.70
2017-06-02T20:43:14.107Z,20.60
2017-06-02T20:45:42.350Z,20.50
2017-06-02T20:48:10.659Z,20.50
2017-06-02T20:50:38.895Z,20.40
2017-06-02T20:53:07.122Z,20.30
2017-06-02T20:55:35.366Z,20.20
2017-06-02T20:58:03.582Z,20.20
2017-06-02T21:00:31.819Z,20.10
2017-06-02T21:03:00.078Z,20.10
2017-06-02T21:05:28.307Z,20.10
2017-06-02T21:07:56.539Z,20.10
2017-06-02T21:10:24.823Z,20.00
2017-06-02T21:12:53.110Z,20.00
2017-06-02T21:15:21.335Z,20.00
2017-06-02T21:17:49.654Z,19.80
2017-06-02T21:20:17.890Z,19.80
2017-06-02T21:22:46.109Z,19.70
2017-06-02T21:25:14.366Z,19.80
2017-06-02T21:27:42.582Z,20.00
2017-06-02T21:30:10.824Z,20.00
2017-06-02T21:32:39.098Z,20.00
2017-06-02T21:35:07.337Z,19.90
2017-06-02T21:37:35.569Z,19.80
2017-06-02T21:40:03.812Z,19.70
2017-06-02T21:42:32.038Z,19.60
2017-06-02T21:45:00.267Z,19.50
2017-06-02T21:47:28.511Z,19.50
2017-06-02T21:49:56.814Z,19.50
2017-06-02T21:52:25.059Z,19.50
2017-06-02T21:54:53.288Z,19.50
2017-06-02T21:57:21.529Z,19.40
2017-06-02T22:03:13.183Z,19.30
2017-06-02T22:05:40.642Z,19.30
2017-06-02T22:08:08.094Z,19.40
2017-06-02T22:10:35.574Z,19.30
2017-06-02T22:13:03.826Z,19.30
2017-06-02T22:15:31.289Z,19.30
2017-06-02T22:17:58.843Z,19.10
2017-06-02T22:20:26.397Z,19.00
2017-06-02T22:22:53.856Z,18.90
2017-06-02T22:25:21.315Z,18.90
2017-06-02T22:27:48.766Z,18.90
2017-06-02T22:30:16.223Z,18.90
2017-06-02T22:32:43.678Z,18.80
2017-06-02T22:35:11.139Z,18.80
2017-06-02T22:37:38.586Z,18.80
2017-06-02T22:40:06.151Z,18.70
2017-06-02T22:42:34.375Z,18.70
2017-06-02T22:45:01.829Z,18.70
2017-06-02T22:47:29.347Z,18.60
2017-06-02T22:49:56.798Z,18.60
2017-06-02T22:52:24.347Z,18.60
2017-06-02T22:54:51.803Z,18.50
2017-06-02T22:57:19.364Z,18.40
2017-06-02T22:59:46.818Z,18.40
2017-06-02T23:02:14.283Z,18.30
2017-06-02T23:04:41.744Z,18.40
2017-06-02T23:07:09.307Z,18.30
2017-06-02T23:09:37.541Z,18.30
2017-06-02T23:12:05.051Z,18.30
2017-06-02T23:14:33.294Z,18.30
2017-06-02T23:17:00.763Z,18.30
2017-06-02T23:19:28.319Z,18.20
2017-06-02T23:21:55.774Z,18.10
2017-06-02T23:24:23.335Z,18.30
2017-06-02T23:26:50.894Z,18.20
2017-06-02T23:29:18.448Z,18.20
2017-06-02T23:31:45.907Z,18.00
2017-06-02T23:34:13.363Z,18.00
2017-06-02T23:36:40.820Z,17.90
2017-06-02T23:39:08.376Z,17.90
2017-06-02T23:41:35.930Z,17.90
2017-06-02T23:44:03.392Z,17.90
2017-06-02T23:46:30.948Z,17.90
2017-06-02T23:48:58.408Z,17.80
2017-06-02T23:51:25.870Z,17.70
2017-06-02T23:53:54.111Z,17.50
2017-06-02T23:56:21.570Z,17.50
2017-06-02T23:58:49.038Z,17.50
